sensor_id;sensor_type;location;lat;lon;timestamp;temperature;humidity
12907;DHT22;6521;50.498;8.474;2023-06-14T00:00:23;16.64;53.29
12907;DHT22;6521;50.498;8.474;2023-06-14T00:02:54;16.62;53.04
12907;DHT22;6521;50.498;8.474;2023-06-14T00:05:26;16.65;52.90
12907;DHT22;6521;50.498;8.474;2023-06-14T00:07:57;16.62;52.95
12907;DHT22;6521;50.498;8.474;2023-06-14T00:10:30;16.59;52.96
12907;DHT22;6521;50.498;8.474;2023-06-14T00:13:02;16.52;52.77
12907;DHT22;6521;50.498;8.474;2023-06-14T00:15:35;16.52;52.78
12907;DHT22;6521;50.498;8.474;2023-06-14T00:18:06;16.49;53.15
12907;DHT22;6521;50.498;8.474;2023-06-14T00:20:36;16.48;52.79
12907;DHT22;6521;50.498;8.474;2023-06-14T00:23:08;16.47;53.03
12907;DHT22;6521;50.498;8.474;2023-06-14T00:25:39;16.44;53.92
12907;DHT22;6521;50.498;8.474;2023-06-14T00:28:10;16.35;53.83
12907;DHT22;6521;50.498;8.474;2023-06-14T00:30:41;16.21;53.96
12907;DHT22;6521;50.498;8.474;2023-06-14T00:33:14;16.13;54.69
12907;DHT22;6521;50.498;8.474;2023-06-14T00:35:48;16.04;54.99
12907;DHT22;6521;50.498;8.474;2023-06-14T00:38:19;15.86;55.75
12907;DHT22;6521;50.498;8.474;2023-06-14T00:40:50;15.82;55.64
12907;DHT22;6521;50.498;8.474;2023-06-14T00:43:21;15.76;55.40
12907;DHT22;6521;50.498;8.474;2023-06-14T00:45:51;15.69;55.52
12907;DHT22;6521;50.498;8.474;2023-06-14T00:48:23;15.63;56.02
12907;DHT22;6521;50.498;8.474;2023-06-14T00:50:55;15.56;56.34
12907;DHT22;6521;50.498;8.474;2023-06-14T00:53:26;15.55;56.75
12907;DHT22;6521;50.498;8.474;2023-06-14T00:55:57;15.50;56.73
12907;DHT22;6521;50.498;8.474;2023-06-14T00:58:28;15.50;56.33
12907;DHT22;6521;50.498;8.474;2023-06-14T01:00:59;15.53;56.18
12907;DHT22;6521;50.498;8.474;2023-06-14T01:03:30;15.50;55.20
12907;DHT22;6521;50.498;8.474;2023-06-14T01:11:41;15.62;53.87
12907;DHT22;6521;50.498;8.474;2023-06-14T01:14:17;15.63;54.09
12907;DHT22;6521;50.498;8.474;2023-06-14T01:16:50;15.65;54.02
12907;DHT22;6521;50.498;8.474;2023-06-14T01:19:26;15.63;53.77
12907;DHT22;6521;50.498;8.474;2023-06-14T01:22:00;15.63;53.75
12907;DHT22;6521;50.498;8.474;2023-06-14T01:24:31;15.65;54.27
12907;DHT22;6521;50.498;8.474;2023-06-14T01:27:04;15.66;53.99
12907;DHT22;6521;50.498;8.474;2023-06-14T01:29:36;15.60;53.51
12907;DHT22;6521;50.498;8.474;2023-06-14T01:32:07;15.63;53.93
12907;DHT22;6521;50.498;8.474;2023-06-14T01:34:38;15.66;53.70
12907;DHT22;6521;50.498;8.474;2023-06-14T01:37:10;15.65;53.94
12907;DHT22;6521;50.498;8.474;2023-06-14T01:39:43;15.69;54.03
12907;DHT22;6521;50.498;8.474;2023-06-14T01:42:15;15.70;53.61
12907;DHT22;6521;50.498;8.474;2023-06-14T01:44:46;15.73;53.61
12907;DHT22;6521;50.498;8.474;2023-06-14T01:47:18;15.71;53.72
12907;DHT22;6521;50.498;8.474;2023-06-14T01:49:49;15.71;53.28
12907;DHT22;6521;50.498;8.474;2023-06-14T01:52:20;15.67;53.97
12907;DHT22;6521;50.498;8.474;2023-06-14T01:54:52;15.69;53.27
12907;DHT22;6521;50.498;8.474;2023-06-14T01:57:24;15.70;53.90
12907;DHT22;6521;50.498;8.474;2023-06-14T01:59:56;15.65;53.41
12907;DHT22;6521;50.498;8.474;2023-06-14T02:02:27;15.60;53.64
12907;DHT22;6521;50.498;8.474;2023-06-14T02:04:58;15.62;53.64
12907;DHT22;6521;50.498;8.474;2023-06-14T02:07:29;15.56;53.81
12907;DHT22;6521;50.498;8.474;2023-06-14T02:09:59;15.55;53.97
12907;DHT22;6521;50.498;8.474;2023-06-14T02:12:30;15.53;53.77
12907;DHT22;6521;50.498;8.474;2023-06-14T02:15:02;15.57;54.18
12907;DHT22;6521;50.498;8.474;2023-06-14T02:17:34;15.46;54.80
12907;DHT22;6521;50.498;8.474;2023-06-14T02:20:11;15.42;54.71
12907;DHT22;6521;50.498;8.474;2023-06-14T02:22:42;15.42;54.96
12907;DHT22;6521;50.498;8.474;2023-06-14T02:25:13;15.38;55.02
12907;DHT22;6521;50.498;8.474;2023-06-14T02:27:45;15.36;55.24
12907;DHT22;6521;50.498;8.474;2023-06-14T02:30:16;15.34;55.49
12907;DHT22;6521;50.498;8.474;2023-06-14T02:32:47;15.28;55.18
12907;DHT22;6521;50.498;8.474;2023-06-14T02:35:18;15.35;54.98
12907;DHT22;6521;50.498;8.474;2023-06-14T02:37:51;15.35;55.19
12907;DHT22;6521;50.498;8.474;2023-06-14T02:40:22;15.34;55.29
12907;DHT22;6521;50.498;8.474;2023-06-14T02:42:54;15.29;55.13
12907;DHT22;6521;50.498;8.474;2023-06-14T02:45:24;15.31;54.87
12907;DHT22;6521;50.498;8.474;2023-06-14T02:47:56;15.27;54.90
12907;DHT22;6521;50.498;8.474;2023-06-14T02:50:27;15.27;54.87
12907;DHT22;6521;50.498;8.474;2023-06-14T02:52:59;15.25;55.53
12907;DHT22;6521;50.498;8.474;2023-06-14T02:55:29;15.19;55.40
12907;DHT22;6521;50.498;8.474;2023-06-14T02:58:00;15.18;55.69
12907;DHT22;6521;50.498;8.474;2023-06-14T03:00:32;15.11;55.63
12907;DHT22;6521;50.498;8.474;2023-06-14T03:03:03;15.15;55.77
12907;DHT22;6521;50.498;8.474;2023-06-14T03:05:35;15.11;56.02
12907;DHT22;6521;50.498;8.474;2023-06-14T03:08:06;15.05;56.28
12907;DHT22;6521;50.498;8.474;2023-06-14T03:10:37;15.01;56.81
12907;DHT22;6521;50.498;8.474;2023-06-14T03:13:10;14.97;57.23
12907;DHT22;6521;50.498;8.474;2023-06-14T03:15:42;14.92;57.91
12907;DHT22;6521;50.498;8.474;2023-06-14T03:18:16;14.85;58.21
12907;DHT22;6521;50.498;8.474;2023-06-14T03:20:47;14.76;58.95
12907;DHT22;6521;50.498;8.474;2023-06-14T03:23:18;14.71;58.86
12907;DHT22;6521;50.498;8.474;2023-06-14T03:25:49;14.71;58.94
12907;DHT22;6521;50.498;8.474;2023-06-14T03:28:20;14.61;59.15
12907;DHT22;6521;50.498;8.474;2023-06-14T03:30:51;14.49;59.98
12907;DHT22;6521;50.498;8.474;2023-06-14T03:33:22;14.44;59.91
12907;DHT22;6521;50.498;8.474;2023-06-14T03:35:53;14.40;60.01
12907;DHT22;6521;50.498;8.474;2023-06-14T03:38:24;14.33;60.14
12907;DHT22;6521;50.498;8.474;2023-06-14T03:40:56;14.29;60.41
12907;DHT22;6521;50.498;8.474;2023-06-14T03:43:27;14.26;61.02
12907;DHT22;6521;50.498;8.474;2023-06-14T03:45:58;14.23;60.88
12907;DHT22;6521;50.498;8.474;2023-06-14T03:48:30;14.28;61.25
12907;DHT22;6521;50.498;8.474;2023-06-14T03:51:01;14.25;61.71
12907;DHT22;6521;50.498;8.474;2023-06-14T03:53:33;14.23;61.19
12907;DHT22;6521;50.498;8.474;2023-06-14T03:56:08;14.26;61.05
12907;DHT22;6521;50.498;8.474;2023-06-14T03:58:44;14.30;60.62
12907;DHT22;6521;50.498;8.474;2023-06-14T04:01:16;14.34;60.43
12907;DHT22;6521;50.498;8.474;2023-06-14T04:03:47;14.41;60.19
12907;DHT22;6521;50.498;8.474;2023-06-14T04:06:18;14.47;60.22
12907;DHT22;6521;50.498;8.474;2023-06-14T04:08:50;14.55;60.27
12907;DHT22;6521;50.498;8.474;2023-06-14T04:11:21;14.59;59.74
12907;DHT22;6521;50.498;8.474;2023-06-14T04:13:52;14.67;59.65
12907;DHT22;6521;50.498;8.474;2023-06-14T04:16:25;14.76;59.58
12907;DHT22;6521;50.498;8.474;2023-06-14T04:18:57;14.81;59.65
12907;DHT22;6521;50.498;8.474;2023-06-14T04:21:28;14.91;59.49
12907;DHT22;6521;50.498;8.474;2023-06-14T04:24:02;14.95;60.02
12907;DHT22;6521;50.498;8.474;2023-06-14T04:26:34;14.99;59.68
12907;DHT22;6521;50.498;8.474;2023-06-14T04:29:06;15.14;59.73
12907;DHT22;6521;50.498;8.474;2023-06-14T04:31:45;15.28;59.12
12907;DHT22;6521;50.498;8.474;2023-06-14T04:34:18;15.34;58.57
12907;DHT22;6521;50.498;8.474;2023-06-14T04:36:56;15.29;58.39
12907;DHT22;6521;50.498;8.474;2023-06-14T04:39:35;15.28;58.41
12907;DHT22;6521;50.498;8.474;2023-06-14T04:42:07;15.29;58.69
12907;DHT22;6521;50.498;8.474;2023-06-14T04:44:38;15.28;58.68
12907;DHT22;6521;50.498;8.474;2023-06-14T04:47:10;15.24;58.88
12907;DHT22;6521;50.498;8.474;2023-06-14T04:49:43;15.22;59.25
12907;DHT22;6521;50.498;8.474;2023-06-14T04:52:14;15.19;58.88
12907;DHT22;6521;50.498;8.474;2023-06-14T04:54:48;15.18;58.26
12907;DHT22;6521;50.498;8.474;2023-06-14T04:57:23;15.19;58.94
12907;DHT22;6521;50.498;8.474;2023-06-14T04:59:57;15.21;58.98
12907;DHT22;6521;50.498;8.474;2023-06-14T05:02:30;15.25;58.72
12907;DHT22;6521;50.498;8.474;2023-06-14T05:05:01;15.28;59.21
12907;DHT22;6521;50.498;8.474;2023-06-14T05:07:32;15.34;58.90
12907;DHT22;6521;50.498;8.474;2023-06-14T05:10:05;15.39;58.21
12907;DHT22;6521;50.498;8.474;2023-06-14T05:12:36;15.39;58.29
12907;DHT22;6521;50.498;8.474;2023-06-14T05:15:09;15.40;58.38
12907;DHT22;6521;50.498;8.474;2023-06-14T05:17:41;15.43;58.86
12907;DHT22;6521;50.498;8.474;2023-06-14T05:20:12;15.48;58.41
12907;DHT22;6521;50.498;8.474;2023-06-14T05:22:43;15.50;58.23
12907;DHT22;6521;50.498;8.474;2023-06-14T05:25:14;15.52;58.63
12907;DHT22;6521;50.498;8.474;2023-06-14T05:27:45;15.56;58.72
12907;DHT22;6521;50.498;8.474;2023-06-14T05:30:15;15.59;58.47
12907;DHT22;6521;50.498;8.474;2023-06-14T05:32:46;15.59;58.46
12907;DHT22;6521;50.498;8.474;2023-06-14T05:35:17;15.65;58.89
12907;DHT22;6521;50.498;8.474;2023-06-14T05:37:48;15.65;58.67
12907;DHT22;6521;50.498;8.474;2023-06-14T05:40:19;15.67;59.16
12907;DHT22;6521;50.498;8.474;2023-06-14T05:42:50;15.71;58.49
12907;DHT22;6521;50.498;8.474;2023-06-14T05:45:22;15.77;58.30
12907;DHT22;6521;50.498;8.474;2023-06-14T05:47:52;15.80;58.28
12907;DHT22;6521;50.498;8.474;2023-06-14T05:50:25;15.79;58.16
12907;DHT22;6521;50.498;8.474;2023-06-14T05:52:56;15.82;58.78
12907;DHT22;6521;50.498;8.474;2023-06-14T05:55:27;15.82;58.11
12907;DHT22;6521;50.498;8.474;2023-06-14T05:57:57;15.86;57.93
12907;DHT22;6521;50.498;8.474;2023-06-14T06:00:28;15.87;58.08
12907;DHT22;6521;50.498;8.474;2023-06-14T06:02:59;15.91;58.05
12907;DHT22;6521;50.498;8.474;2023-06-14T06:05:31;15.96;58.25
12907;DHT22;6521;50.498;8.474;2023-06-14T06:08:02;16.03;58.24
12907;DHT22;6521;50.498;8.474;2023-06-14T06:10:33;16.07;59.28
12907;DHT22;6521;50.498;8.474;2023-06-14T06:13:03;16.16;58.83
12907;DHT22;6521;50.498;8.474;2023-06-14T06:15:35;16.20;57.97
12907;DHT22;6521;50.498;8.474;2023-06-14T06:18:06;16.24;58.03
12907;DHT22;6521;50.498;8.474;2023-06-14T06:20:37;16.22;58.17
12907;DHT22;6521;50.498;8.474;2023-06-14T06:23:08;16.21;59.62
12907;DHT22;6521;50.498;8.474;2023-06-14T06:25:40;16.22;57.79
12907;DHT22;6521;50.498;8.474;2023-06-14T06:28:11;16.28;57.73
12907;DHT22;6521;50.498;8.474;2023-06-14T06:30:41;16.35;58.95
12907;DHT22;6521;50.498;8.474;2023-06-14T06:33:13;16.41;58.28
12907;DHT22;6521;50.498;8.474;2023-06-14T06:35:44;16.49;57.94
12907;DHT22;6521;50.498;8.474;2023-06-14T06:38:16;16.54;57.81
12907;DHT22;6521;50.498;8.474;2023-06-14T06:40:49;16.62;57.66
12907;DHT22;6521;50.498;8.474;2023-06-14T06:43:20;16.69;58.40
12907;DHT22;6521;50.498;8.474;2023-06-14T06:45:52;16.79;58.40
12907;DHT22;6521;50.498;8.474;2023-06-14T06:48:23;16.87;57.47
12907;DHT22;6521;50.498;8.474;2023-06-14T06:50:54;16.92;57.05
12907;DHT22;6521;50.498;8.474;2023-06-14T06:53:25;17.02;58.38
12907;DHT22;6521;50.498;8.474;2023-06-14T06:55:56;17.12;56.82
12907;DHT22;6521;50.498;8.474;2023-06-14T06:58:28;17.17;57.42
12907;DHT22;6521;50.498;8.474;2023-06-14T07:00:58;17.24;56.78
12907;DHT22;6521;50.498;8.474;2023-06-14T07:03:29;17.26;56.88
12907;DHT22;6521;50.498;8.474;2023-06-14T07:06:01;17.30;57.21
12907;DHT22;6521;50.498;8.474;2023-06-14T07:08:32;17.33;56.88
12907;DHT22;6521;50.498;8.474;2023-06-14T07:11:02;17.44;56.59
12907;DHT22;6521;50.498;8.474;2023-06-14T07:13:34;17.43;56.49
12907;DHT22;6521;50.498;8.474;2023-06-14T07:16:05;17.53;56.13
12907;DHT22;6521;50.498;8.474;2023-06-14T07:18:36;17.53;54.97
12907;DHT22;6521;50.498;8.474;2023-06-14T07:21:08;17.53;55.13
12907;DHT22;6521;50.498;8.474;2023-06-14T07:23:39;17.57;55.51
12907;DHT22;6521;50.498;8.474;2023-06-14T07:26:10;17.68;56.13
12907;DHT22;6521;50.498;8.474;2023-06-14T07:28:40;17.78;56.01
12907;DHT22;6521;50.498;8.474;2023-06-14T07:31:15;17.77;54.13
12907;DHT22;6521;50.498;8.474;2023-06-14T07:33:47;17.82;53.81
12907;DHT22;6521;50.498;8.474;2023-06-14T07:36:18;17.79;53.19
12907;DHT22;6521;50.498;8.474;2023-06-14T07:38:48;17.78;53.18
12907;DHT22;6521;50.498;8.474;2023-06-14T07:41:19;17.82;53.25
12907;DHT22;6521;50.498;8.474;2023-06-14T07:43:51;17.91;54.26
12907;DHT22;6521;50.498;8.474;2023-06-14T07:46:21;17.99;53.47
12907;DHT22;6521;50.498;8.474;2023-06-14T07:48:53;18.09;53.59
12907;DHT22;6521;50.498;8.474;2023-06-14T07:51:23;18.12;53.39
12907;DHT22;6521;50.498;8.474;2023-06-14T07:53:55;18.14;52.61
12907;DHT22;6521;50.498;8.474;2023-06-14T07:56:26;18.17;51.91
12907;DHT22;6521;50.498;8.474;2023-06-14T07:58:57;18.17;49.69
12907;DHT22;6521;50.498;8.474;2023-06-14T08:01:28;18.25;50.02
12907;DHT22;6521;50.498;8.474;2023-06-14T08:03:59;18.30;50.45
12907;DHT22;6521;50.498;8.474;2023-06-14T08:06:30;18.32;50.85
12907;DHT22;6521;50.498;8.474;2023-06-14T08:09:01;18.42;49.14
12907;DHT22;6521;50.498;8.474;2023-06-14T08:11:32;18.50;50.13
12907;DHT22;6521;50.498;8.474;2023-06-14T08:14:04;18.56;48.61
12907;DHT22;6521;50.498;8.474;2023-06-14T08:16:34;18.64;49.27
12907;DHT22;6521;50.498;8.474;2023-06-14T08:19:05;18.74;49.20
12907;DHT22;6521;50.498;8.474;2023-06-14T08:21:36;18.78;45.34
12907;DHT22;6521;50.498;8.474;2023-06-14T08:24:07;18.84;47.16
12907;DHT22;6521;50.498;8.474;2023-06-14T08:26:38;18.94;47.45
12907;DHT22;6521;50.498;8.474;2023-06-14T08:29:09;18.97;47.71
12907;DHT22;6521;50.498;8.474;2023-06-14T08:31:40;19.11;47.84
12907;DHT22;6521;50.498;8.474;2023-06-14T08:34:11;19.35;47.84
12907;DHT22;6521;50.498;8.474;2023-06-14T08:36:42;19.45;48.27
12907;DHT22;6521;50.498;8.474;2023-06-14T08:39:13;19.40;46.70
12907;DHT22;6521;50.498;8.474;2023-06-14T08:41:46;19.35;47.67
12907;DHT22;6521;50.498;8.474;2023-06-14T08:44:17;19.53;46.67
12907;DHT22;6521;50.498;8.474;2023-06-14T08:46:48;19.86;47.43
12907;DHT22;6521;50.498;8.474;2023-06-14T08:49:19;20.20;47.05
12907;DHT22;6521;50.498;8.474;2023-06-14T08:51:58;20.35;44.77
12907;DHT22;6521;50.498;8.474;2023-06-14T08:54:29;20.37;44.85
12907;DHT22;6521;50.498;8.474;2023-06-14T08:57:06;20.42;45.03
12907;DHT22;6521;50.498;8.474;2023-06-14T08:59:46;20.56;45.59
12907;DHT22;6521;50.498;8.474;2023-06-14T09:02:17;20.72;44.83
12907;DHT22;6521;50.498;8.474;2023-06-14T09:04:50;20.89;44.57
12907;DHT22;6521;50.498;8.474;2023-06-14T09:07:20;20.99;44.85
12907;DHT22;6521;50.498;8.474;2023-06-14T09:10:08;21.13;42.89
12907;DHT22;6521;50.498;8.474;2023-06-14T09:12:40;21.24;43.06
12907;DHT22;6521;50.498;8.474;2023-06-14T09:15:12;21.45;42.70
12907;DHT22;6521;50.498;8.474;2023-06-14T09:17:44;21.57;41.71
12907;DHT22;6521;50.498;8.474;2023-06-14T09:20:15;21.23;41.90
12907;DHT22;6521;50.498;8.474;2023-06-14T09:22:49;21.07;42.22
12907;DHT22;6521;50.498;8.474;2023-06-14T09:25:20;21.30;42.31
12907;DHT22;6521;50.498;8.474;2023-06-14T09:27:51;21.77;40.70
12907;DHT22;6521;50.498;8.474;2023-06-14T09:30:22;22.16;40.88
12907;DHT22;6521;50.498;8.474;2023-06-14T09:32:53;22.42;40.60
12907;DHT22;6521;50.498;8.474;2023-06-14T09:35:24;22.83;40.49
12907;DHT22;6521;50.498;8.474;2023-06-14T09:37:55;23.16;39.30
12907;DHT22;6521;50.498;8.474;2023-06-14T09:40:26;23.25;37.84
12907;DHT22;6521;50.498;8.474;2023-06-14T09:42:57;23.31;38.11
12907;DHT22;6521;50.498;8.474;2023-06-14T09:45:29;23.56;38.41
12907;DHT22;6521;50.498;8.474;2023-06-14T09:48:02;23.81;37.41
12907;DHT22;6521;50.498;8.474;2023-06-14T09:50:33;24.03;37.45
12907;DHT22;6521;50.498;8.474;2023-06-14T09:53:10;24.37;36.99
12907;DHT22;6521;50.498;8.474;2023-06-14T09:55:41;24.71;37.19
12907;DHT22;6521;50.498;8.474;2023-06-14T09:58:14;25.02;35.51
12907;DHT22;6521;50.498;8.474;2023-06-14T10:00:47;25.15;35.03
12907;DHT22;6521;50.498;8.474;2023-06-14T10:03:30;25.31;35.03
12907;DHT22;6521;50.498;8.474;2023-06-14T10:06:03;25.41;34.54
12907;DHT22;6521;50.498;8.474;2023-06-14T10:08:39;25.61;34.15
12907;DHT22;6521;50.498;8.474;2023-06-14T10:11:12;25.81;34.15
12907;DHT22;6521;50.498;8.474;2023-06-14T10:13:44;25.81;33.78
12907;DHT22;6521;50.498;8.474;2023-06-14T10:16:24;25.78;33.84
12907;DHT22;6521;50.498;8.474;2023-06-14T10:19:14;26.35;33.82
12907;DHT22;6521;50.498;8.474;2023-06-14T10:21:57;26.31;33.08
12907;DHT22;6521;50.498;8.474;2023-06-14T10:24:55;26.47;32.05
12907;DHT22;6521;50.498;8.474;2023-06-14T10:27:26;26.40;33.10
12907;DHT22;6521;50.498;8.474;2023-06-14T10:32:28;25.99;32.31
12907;DHT22;6521;50.498;8.474;2023-06-14T10:35:01;25.85;33.51
12907;DHT22;6521;50.498;8.474;2023-06-14T10:37:33;26.03;33.83
12907;DHT22;6521;50.498;8.474;2023-06-14T10:40:04;26.47;33.11
12907;DHT22;6521;50.498;8.474;2023-06-14T10:42:51;26.39;33.54
12907;DHT22;6521;50.498;8.474;2023-06-14T10:45:22;25.94;33.70
12907;DHT22;6521;50.498;8.474;2023-06-14T10:47:57;25.54;34.07
12907;DHT22;6521;50.498;8.474;2023-06-14T10:50:28;25.13;34.72
12907;DHT22;6521;50.498;8.474;2023-06-14T10:53:22;25.09;35.98
12907;DHT22;6521;50.498;8.474;2023-06-14T10:55:56;25.68;34.45
12907;DHT22;6521;50.498;8.474;2023-06-14T10:58:26;25.95;34.43
12907;DHT22;6521;50.498;8.474;2023-06-14T11:00:57;25.60;33.08
12907;DHT22;6521;50.498;8.474;2023-06-14T11:03:51;24.68;34.96
12907;DHT22;6521;50.498;8.474;2023-06-14T11:06:29;24.89;35.13
12907;DHT22;6521;50.498;8.474;2023-06-14T11:11:42;26.11;34.24
12907;DHT22;6521;50.498;8.474;2023-06-14T11:14:14;26.87;33.76
12907;DHT22;6521;50.498;8.474;2023-06-14T11:16:49;27.39;32.50
12907;DHT22;6521;50.498;8.474;2023-06-14T11:19:21;27.71;31.38
12907;DHT22;6521;50.498;8.474;2023-06-14T11:21:52;27.37;30.31
12907;DHT22;6521;50.498;8.474;2023-06-14T11:24:23;27.04;30.89
12907;DHT22;6521;50.498;8.474;2023-06-14T11:26:55;26.28;32.26
12907;DHT22;6521;50.498;8.474;2023-06-14T11:29:29;25.55;33.92
12907;DHT22;6521;50.498;8.474;2023-06-14T11:31:59;25.99;33.85
12907;DHT22;6521;50.498;8.474;2023-06-14T11:34:31;26.59;32.46
12907;DHT22;6521;50.498;8.474;2023-06-14T11:37:02;27.16;31.31
12907;DHT22;6521;50.498;8.474;2023-06-14T11:39:32;27.55;30.49
12907;DHT22;6521;50.498;8.474;2023-06-14T11:42:03;27.21;31.62
12907;DHT22;6521;50.498;8.474;2023-06-14T11:44:34;26.49;32.97
12907;DHT22;6521;50.498;8.474;2023-06-14T11:47:06;25.89;33.89
12907;DHT22;6521;50.498;8.474;2023-06-14T11:49:37;25.71;33.54
12907;DHT22;6521;50.498;8.474;2023-06-14T11:52:08;25.44;35.28
12907;DHT22;6521;50.498;8.474;2023-06-14T11:54:39;25.40;35.05
12907;DHT22;6521;50.498;8.474;2023-06-14T11:57:13;25.50;34.96
12907;DHT22;6521;50.498;8.474;2023-06-14T11:59:44;25.77;33.89
12907;DHT22;6521;50.498;8.474;2023-06-14T12:02:16;25.72;34.88
12907;DHT22;6521;50.498;8.474;2023-06-14T12:04:48;25.48;34.81
12907;DHT22;6521;50.498;8.474;2023-06-14T12:07:21;25.02;34.68
12907;DHT22;6521;50.498;8.474;2023-06-14T12:12:29;25.00;36.31
12907;DHT22;6521;50.498;8.474;2023-06-14T12:15:03;25.20;35.08
12907;DHT22;6521;50.498;8.474;2023-06-14T12:17:36;25.47;34.73
12907;DHT22;6521;50.498;8.474;2023-06-14T12:20:10;25.50;34.17
12907;DHT22;6521;50.498;8.474;2023-06-14T12:22:51;25.51;35.40
12907;DHT22;6521;50.498;8.474;2023-06-14T12:25:34;25.16;34.35
12907;DHT22;6521;50.498;8.474;2023-06-14T12:28:07;24.75;35.05
12907;DHT22;6521;50.498;8.474;2023-06-14T12:30:38;24.54;36.29
12907;DHT22;6521;50.498;8.474;2023-06-14T12:33:10;24.29;37.03
12907;DHT22;6521;50.498;8.474;2023-06-14T12:35:41;24.85;36.33
12907;DHT22;6521;50.498;8.474;2023-06-14T12:38:12;25.75;35.69
12907;DHT22;6521;50.498;8.474;2023-06-14T12:40:43;26.64;32.79
12907;DHT22;6521;50.498;8.474;2023-06-14T12:43:14;27.12;31.21
12907;DHT22;6521;50.498;8.474;2023-06-14T12:45:44;26.79;32.44
12907;DHT22;6521;50.498;8.474;2023-06-14T12:48:15;26.32;32.81
12907;DHT22;6521;50.498;8.474;2023-06-14T12:50:47;26.65;33.16
12907;DHT22;6521;50.498;8.474;2023-06-14T12:53:18;27.08;32.24
12907;DHT22;6521;50.498;8.474;2023-06-14T12:55:49;27.32;29.82
12907;DHT22;6521;50.498;8.474;2023-06-14T12:58:20;27.29;29.14
12907;DHT22;6521;50.498;8.474;2023-06-14T13:00:51;26.84;30.50
12907;DHT22;6521;50.498;8.474;2023-06-14T13:03:22;26.33;33.38
12907;DHT22;6521;50.498;8.474;2023-06-14T13:05:52;25.81;33.61
12907;DHT22;6521;50.498;8.474;2023-06-14T13:08:23;25.33;34.16
12907;DHT22;6521;50.498;8.474;2023-06-14T13:10:54;25.12;35.27
12907;DHT22;6521;50.498;8.474;2023-06-14T13:13:25;24.90;35.10
12907;DHT22;6521;50.498;8.474;2023-06-14T13:15:56;24.90;35.64
12907;DHT22;6521;50.498;8.474;2023-06-14T13:18:27;24.96;36.59
12907;DHT22;6521;50.498;8.474;2023-06-14T13:20:58;25.41;36.41
12907;DHT22;6521;50.498;8.474;2023-06-14T13:23:29;25.95;33.41
12907;DHT22;6521;50.498;8.474;2023-06-14T13:25:59;26.52;32.76
12907;DHT22;6521;50.498;8.474;2023-06-14T13:28:30;27.04;32.83
12907;DHT22;6521;50.498;8.474;2023-06-14T13:31:02;27.27;31.77
12907;DHT22;6521;50.498;8.474;2023-06-14T13:33:33;27.39;31.97
12907;DHT22;6521;50.498;8.474;2023-06-14T13:36:04;27.34;31.73
12907;DHT22;6521;50.498;8.474;2023-06-14T13:38:35;27.48;30.83
12907;DHT22;6521;50.498;8.474;2023-06-14T13:41:05;27.53;29.82
12907;DHT22;6521;50.498;8.474;2023-06-14T13:43:36;27.28;31.17
12907;DHT22;6521;50.498;8.474;2023-06-14T13:46:07;26.84;31.81
12907;DHT22;6521;50.498;8.474;2023-06-14T13:48:38;26.74;31.58
12907;DHT22;6521;50.498;8.474;2023-06-14T13:51:09;26.43;32.75
12907;DHT22;6521;50.498;8.474;2023-06-14T13:53:41;26.52;33.90
12907;DHT22;6521;50.498;8.474;2023-06-14T13:56:12;26.88;32.71
12907;DHT22;6521;50.498;8.474;2023-06-14T13:58:43;27.34;32.21
12907;DHT22;6521;50.498;8.474;2023-06-14T14:01:14;27.52;31.65
12907;DHT22;6521;50.498;8.474;2023-06-14T14:03:48;27.76;30.08
12907;DHT22;6521;50.498;8.474;2023-06-14T14:06:20;27.89;30.19
12907;DHT22;6521;50.498;8.474;2023-06-14T14:08:51;27.46;30.75
12907;DHT22;6521;50.498;8.474;2023-06-14T14:11:23;26.98;30.33
12907;DHT22;6521;50.498;8.474;2023-06-14T14:13:54;26.71;31.82
12907;DHT22;6521;50.498;8.474;2023-06-14T14:16:25;26.71;32.32
12907;DHT22;6521;50.498;8.474;2023-06-14T14:18:56;26.76;31.21
12907;DHT22;6521;50.498;8.474;2023-06-14T14:21:27;26.74;31.41
12907;DHT22;6521;50.498;8.474;2023-06-14T14:23:58;27.15;31.66
12907;DHT22;6521;50.498;8.474;2023-06-14T14:26:29;27.55;31.03
12907;DHT22;6521;50.498;8.474;2023-06-14T14:29:00;27.48;30.63
12907;DHT22;6521;50.498;8.474;2023-06-14T14:31:31;27.22;31.56
12907;DHT22;6521;50.498;8.474;2023-06-14T14:34:02;26.81;31.92
12907;DHT22;6521;50.498;8.474;2023-06-14T14:36:33;26.37;32.42
12907;DHT22;6521;50.498;8.474;2023-06-14T14:39:06;25.96;32.08
12907;DHT22;6521;50.498;8.474;2023-06-14T14:41:37;25.67;32.91
12907;DHT22;6521;50.498;8.474;2023-06-14T14:44:08;25.36;33.95
12907;DHT22;6521;50.498;8.474;2023-06-14T14:46:39;25.06;34.76
12907;DHT22;6521;50.498;8.474;2023-06-14T14:49:10;24.83;35.06
12907;DHT22;6521;50.498;8.474;2023-06-14T14:51:41;24.61;35.25
12907;DHT22;6521;50.498;8.474;2023-06-14T14:54:12;24.32;35.07
12907;DHT22;6521;50.498;8.474;2023-06-14T14:56:43;24.49;35.90
12907;DHT22;6521;50.498;8.474;2023-06-14T14:59:14;24.96;34.57
12907;DHT22;6521;50.498;8.474;2023-06-14T15:01:45;25.47;33.62
12907;DHT22;6521;50.498;8.474;2023-06-14T15:04:16;25.74;33.21
12907;DHT22;6521;50.498;8.474;2023-06-14T15:06:47;26.13;32.44
12907;DHT22;6521;50.498;8.474;2023-06-14T15:09:18;26.40;32.56
12907;DHT22;6521;50.498;8.474;2023-06-14T15:11:48;26.76;31.75
12907;DHT22;6521;50.498;8.474;2023-06-14T15:14:19;26.95;32.40
12907;DHT22;6521;50.498;8.474;2023-06-14T15:16:50;26.91;31.34
12907;DHT22;6521;50.498;8.474;2023-06-14T15:19:21;26.86;31.10
12907;DHT22;6521;50.498;8.474;2023-06-14T15:21:51;26.88;31.20
12907;DHT22;6521;50.498;8.474;2023-06-14T15:24:22;26.86;31.43
12907;DHT22;6521;50.498;8.474;2023-06-14T15:26:53;26.88;31.43
12907;DHT22;6521;50.498;8.474;2023-06-14T15:29:24;26.81;31.29
12907;DHT22;6521;50.498;8.474;2023-06-14T15:31:55;26.91;31.54
12907;DHT22;6521;50.498;8.474;2023-06-14T15:34:28;26.88;31.61
12907;DHT22;6521;50.498;8.474;2023-06-14T15:36:59;26.92;31.32
12907;DHT22;6521;50.498;8.474;2023-06-14T15:39:30;26.98;31.26
12907;DHT22;6521;50.498;8.474;2023-06-14T15:42:03;26.76;31.05
12907;DHT22;6521;50.498;8.474;2023-06-14T15:44:33;26.43;32.38
12907;DHT22;6521;50.498;8.474;2023-06-14T15:47:05;26.09;32.73
12907;DHT22;6521;50.498;8.474;2023-06-14T15:49:36;25.65;33.02
12907;DHT22;6521;50.498;8.474;2023-06-14T15:52:07;25.37;33.96
12907;DHT22;6521;50.498;8.474;2023-06-14T15:54:38;25.12;34.01
12907;DHT22;6521;50.498;8.474;2023-06-14T15:57:09;24.95;33.88
12907;DHT22;6521;50.498;8.474;2023-06-14T15:59:41;24.78;34.37
12907;DHT22;6521;50.498;8.474;2023-06-14T16:02:12;24.58;34.07
12907;DHT22;6521;50.498;8.474;2023-06-14T16:04:44;24.71;35.50
12907;DHT22;6521;50.498;8.474;2023-06-14T16:07:15;24.71;34.84
12907;DHT22;6521;50.498;8.474;2023-06-14T16:09:45;24.82;35.09
12907;DHT22;6521;50.498;8.474;2023-06-14T16:12:17;24.95;34.65
12907;DHT22;6521;50.498;8.474;2023-06-14T16:14:48;24.95;33.62
12907;DHT22;6521;50.498;8.474;2023-06-14T16:17:19;24.97;34.15
12907;DHT22;6521;50.498;8.474;2023-06-14T16:19:50;24.99;33.34
12907;DHT22;6521;50.498;8.474;2023-06-14T16:22:21;25.13;34.76
12907;DHT22;6521;50.498;8.474;2023-06-14T16:24:52;25.19;34.20
12907;DHT22;6521;50.498;8.474;2023-06-14T16:27:23;25.12;33.76